sensor_id;sensor_type;location;lat;lon;timestamp;pressure;altitude;pressure_sealevel;temperature;humidity
11936;BME280;6027;48.576;9.180;2022-07-29T00:00:11;96739.00;;;19.87;100.00
11936;BME280;6027;48.576;9.180;2022-07-29T00:02:36;96731.50;;;19.89;100.00
11936;BME280;6027;48.576;9.180;2022-07-29T00:05:03;96726.16;;;19.89;100.00
11936;BME280;6027;48.576;9.180;2022-07-29T00:07:29;96724.03;;;19.91;100.00
11936;BME280;6027;48.576;9.180;2022-07-29T00:09:55;96719.94;;;19.89;100.00
11936;BME280;6027;48.576;9.180;2022-07-29T00:12:22;96714.81;;;19.87;100.00
11936;BME280;6027;48.576;9.180;2022-07-29T00:14:49;96716.38;;;19.83;100.00
11936;BME280;6027;48.576;9.180;2022-07-29T00:17:14;96718.50;;;19.81;100.00
11936;BME280;6027;48.576;9.180;2022-07-29T00:19:40;96711.00;;;19.66;100.00
11936;BME280;6027;48.576;9.180;2022-07-29T00:22:05;96710.41;;;19.64;100.00
11936;BME280;6027;48.576;9.180;2022-07-29T00:24:31;96717.03;;;19.57;100.00
11936;BME280;6027;48.576;9.180;2022-07-29T00:26:56;96716.81;;;19.47;100.00
11936;BME280;6027;48.576;9.180;2022-07-29T00:29:21;96722.25;;;19.35;100.00
11936;BME280;6027;48.576;9.180;2022-07-29T00:31:47;96715.69;;;19.43;100.00
11936;BME280;6027;48.576;9.180;2022-07-29T00:34:12;96724.59;;;19.31;100.00
11936;BME280;6027;48.576;9.180;2022-07-29T00:36:57;96717.19;;;19.22;100.00
11936;BME280;6027;48.576;9.180;2022-07-29T00:39:22;96715.22;;;19.17;100.00
11936;BME280;6027;48.576;9.180;2022-07-29T00:41:48;96719.44;;;18.85;100.00
11936;BME280;6027;48.576;9.180;2022-07-29T00:44:14;96721.66;;;18.76;100.00
11936;BME280;6027;48.576;9.180;2022-07-29T00:46:40;96712.91;;;18.69;100.00
11936;BME280;6027;48.576;9.180;2022-07-29T00:49:05;96707.34;;;18.59;100.00
11936;BME280;6027;48.576;9.180;2022-07-29T00:51:34;96711.88;;;18.70;100.00
11936;BME280;6027;48.576;9.180;2022-07-29T00:54:01;96694.88;;;18.65;100.00
11936;BME280;6027;48.576;9.180;2022-07-29T00:56:30;96689.16;;;18.49;100.00
11936;BME280;6027;48.576;9.180;2022-07-29T00:58:56;96702.66;;;18.54;100.00
11936;BME280;6027;48.576;9.180;2022-07-29T01:01:22;96691.13;;;18.54;100.00
11936;BME280;6027;48.576;9.180;2022-07-29T01:03:47;96683.13;;;18.42;100.00
11936;BME280;6027;48.576;9.180;2022-07-29T01:06:14;96682.53;;;18.40;100.00
11936;BME280;6027;48.576;9.180;2022-07-29T01:08:40;96685.34;;;18.34;100.00
11936;BME280;6027;48.576;9.180;2022-07-29T01:11:06;96684.09;;;18.24;100.00
11936;BME280;6027;48.576;9.180;2022-07-29T01:13:32;96670.06;;;18.34;100.00
11936;BME280;6027;48.576;9.180;2022-07-29T01:16:04;96685.22;;;18.40;100.00
11936;BME280;6027;48.576;9.180;2022-07-29T01:18:34;96674.63;;;18.34;100.00
11936;BME280;6027;48.576;9.180;2022-07-29T01:21:23;96675.16;;;18.47;100.00
11936;BME280;6027;48.576;9.180;2022-07-29T01:27:04;96677.63;;;18.60;100.00
11936;BME280;6027;48.576;9.180;2022-07-29T01:29:44;96673.09;;;18.38;100.00
11936;BME280;6027;48.576;9.180;2022-07-29T01:32:15;96675.06;;;18.42;100.00
11936;BME280;6027;48.576;9.180;2022-07-29T01:35:06;96672.63;;;18.41;100.00
11936;BME280;6027;48.576;9.180;2022-07-29T01:37:44;96676.25;;;18.46;100.00
11936;BME280;6027;48.576;9.180;2022-07-29T01:40:33;96677.19;;;18.40;100.00
11936;BME280;6027;48.576;9.180;2022-07-29T01:43:06;96681.59;;;18.46;100.00
11936;BME280;6027;48.576;9.180;2022-07-29T01:45:43;96680.06;;;18.50;100.00
11936;BME280;6027;48.576;9.180;2022-07-29T01:48:15;96677.47;;;18.55;100.00
11936;BME280;6027;48.576;9.180;2022-07-29T01:50:59;96665.63;;;18.63;100.00
11936;BME280;6027;48.576;9.180;2022-07-29T01:53:34;96666.03;;;18.72;100.00
11936;BME280;6027;48.576;9.180;2022-07-29T01:56:02;96663.75;;;18.63;100.00
11936;BME280;6027;48.576;9.180;2022-07-29T01:58:29;96667.91;;;18.71;100.00
11936;BME280;6027;48.576;9.180;2022-07-29T02:00:58;96667.00;;;18.66;100.00
11936;BME280;6027;48.576;9.180;2022-07-29T02:03:25;96658.69;;;18.67;100.00
11936;BME280;6027;48.576;9.180;2022-07-29T02:05:52;96655.66;;;18.75;100.00
11936;BME280;6027;48.576;9.180;2022-07-29T02:08:19;96656.56;;;18.81;100.00
11936;BME280;6027;48.576;9.180;2022-07-29T02:10:47;96658.78;;;18.84;100.00
11936;BME280;6027;48.576;9.180;2022-07-29T02:13:15;96659.25;;;18.81;100.00
11936;BME280;6027;48.576;9.180;2022-07-29T02:15:43;96659.84;;;18.83;100.00
11936;BME280;6027;48.576;9.180;2022-07-29T02:18:17;96658.19;;;18.82;100.00
11936;BME280;6027;48.576;9.180;2022-07-29T02:20:47;96659.97;;;18.76;100.00
11936;BME280;6027;48.576;9.180;2022-07-29T02:23:16;96659.38;;;18.74;100.00
11936;BME280;6027;48.576;9.180;2022-07-29T02:25:43;96668.53;;;18.61;100.00
11936;BME280;6027;48.576;9.180;2022-07-29T02:28:09;96666.91;;;18.60;100.00
11936;BME280;6027;48.576;9.180;2022-07-29T02:30:40;96663.66;;;18.47;100.00
11936;BME280;6027;48.576;9.180;2022-07-29T02:33:08;96668.16;;;18.58;100.00
11936;BME280;6027;48.576;9.180;2022-07-29T02:35:35;96663.59;;;18.58;100.00
11936;BME280;6027;48.576;9.180;2022-07-29T02:38:02;96665.13;;;18.54;100.00
11936;BME280;6027;48.576;9.180;2022-07-29T02:40:48;96658.03;;;18.48;100.00
11936;BME280;6027;48.576;9.180;2022-07-29T02:43:15;96661.28;;;18.50;100.00
11936;BME280;6027;48.576;9.180;2022-07-29T02:45:42;96661.75;;;18.47;100.00
11936;BME280;6027;48.576;9.180;2022-07-29T02:48:13;96657.78;;;18.50;100.00
11936;BME280;6027;48.576;9.180;2022-07-29T02:50:52;96650.69;;;18.55;100.00
11936;BME280;6027;48.576;9.180;2022-07-29T02:53:25;96654.06;;;18.51;100.00
11936;BME280;6027;48.576;9.180;2022-07-29T02:56:13;96646.75;;;18.46;100.00
11936;BME280;6027;48.576;9.180;2022-07-29T02:58:47;96653.25;;;18.50;100.00
11936;BME280;6027;48.576;9.180;2022-07-29T03:01:22;96644.38;;;18.50;100.00
11936;BME280;6027;48.576;9.180;2022-07-29T03:03:51;96651.72;;;18.54;100.00
11936;BME280;6027;48.576;9.180;2022-07-29T03:06:19;96655.69;;;18.52;100.00
11936;BME280;6027;48.576;9.180;2022-07-29T03:08:46;96653.72;;;18.47;100.00
11936;BME280;6027;48.576;9.180;2022-07-29T03:11:13;96655.09;;;18.50;100.00
11936;BME280;6027;48.576;9.180;2022-07-29T03:13:39;96658.28;;;18.47;100.00
11936;BME280;6027;48.576;9.180;2022-07-29T03:16:05;96654.78;;;18.46;100.00
11936;BME280;6027;48.576;9.180;2022-07-29T03:18:31;96651.72;;;18.54;100.00
11936;BME280;6027;48.576;9.180;2022-07-29T03:20:57;96648.63;;;18.46;100.00
11936;BME280;6027;48.576;9.180;2022-07-29T03:23:23;96641.75;;;18.38;100.00
11936;BME280;6027;48.576;9.180;2022-07-29T03:25:49;96648.19;;;18.14;100.00
11936;BME280;6027;48.576;9.180;2022-07-29T03:28:15;96651.63;;;17.86;100.00
11936;BME280;6027;48.576;9.180;2022-07-29T03:30:41;96649.72;;;17.63;100.00
11936;BME280;6027;48.576;9.180;2022-07-29T03:33:06;96646.91;;;17.58;100.00
11936;BME280;6027;48.576;9.180;2022-07-29T03:35:32;96658.34;;;17.77;100.00
11936;BME280;6027;48.576;9.180;2022-07-29T03:37:58;96652.31;;;17.70;100.00
11936;BME280;6027;48.576;9.180;2022-07-29T03:40:37;96652.25;;;17.58;100.00
11936;BME280;6027;48.576;9.180;2022-07-29T03:43:05;96656.34;;;17.49;100.00
11936;BME280;6027;48.576;9.180;2022-07-29T03:45:33;96650.50;;;17.52;100.00
11936;BME280;6027;48.576;9.180;2022-07-29T03:48:05;96651.69;;;17.44;100.00
11936;BME280;6027;48.576;9.180;2022-07-29T03:50:33;96654.72;;;17.48;100.00
11936;BME280;6027;48.576;9.180;2022-07-29T03:53:01;96661.34;;;17.57;100.00
11936;BME280;6027;48.576;9.180;2022-07-29T03:55:28;96660.06;;;17.59;100.00
11936;BME280;6027;48.576;9.180;2022-07-29T03:57:55;96667.03;;;17.49;100.00
11936;BME280;6027;48.576;9.180;2022-07-29T04:00:24;96661.22;;;17.52;100.00
11936;BME280;6027;48.576;9.180;2022-07-29T04:02:51;96667.63;;;17.63;100.00
11936;BME280;6027;48.576;9.180;2022-07-29T04:05:17;96664.31;;;17.67;100.00
11936;BME280;6027;48.576;9.180;2022-07-29T04:07:44;96666.09;;;17.55;100.00
11936;BME280;6027;48.576;9.180;2022-07-29T04:10:10;96668.25;;;17.65;100.00
11936;BME280;6027;48.576;9.180;2022-07-29T04:12:36;96667.06;;;17.60;100.00
11936;BME280;6027;48.576;9.180;2022-07-29T04:15:05;96659.94;;;17.54;100.00
11936;BME280;6027;48.576;9.180;2022-07-29T04:17:31;96672.19;;;17.62;100.00
11936;BME280;6027;48.576;9.180;2022-07-29T04:19:56;96668.09;;;17.48;100.00
11936;BME280;6027;48.576;9.180;2022-07-29T04:22:22;96672.78;;;17.64;100.00
11936;BME280;6027;48.576;9.180;2022-07-29T04:24:48;96668.44;;;17.63;100.00
11936;BME280;6027;48.576;9.180;2022-07-29T04:27:16;96668.09;;;17.59;100.00
11936;BME280;6027;48.576;9.180;2022-07-29T04:29:47;96660.66;;;17.61;100.00
11936;BME280;6027;48.576;9.180;2022-07-29T04:32:25;96680.94;;;17.81;100.00
11936;BME280;6027;48.576;9.180;2022-07-29T04:34:51;96683.16;;;17.84;100.00
11936;BME280;6027;48.576;9.180;2022-07-29T04:37:16;96685.63;;;17.85;100.00
11936;BME280;6027;48.576;9.180;2022-07-29T04:39:42;96697.03;;;17.69;100.00
11936;BME280;6027;48.576;9.180;2022-07-29T04:42:07;96690.25;;;17.78;100.00
11936;BME280;6027;48.576;9.180;2022-07-29T04:44:33;96683.41;;;17.82;100.00
11936;BME280;6027;48.576;9.180;2022-07-29T04:46:58;96683.41;;;17.82;100.00
11936;BME280;6027;48.576;9.180;2022-07-29T04:49:24;96685.63;;;17.85;100.00
11936;BME280;6027;48.576;9.180;2022-07-29T04:51:49;96683.97;;;17.96;100.00
11936;BME280;6027;48.576;9.180;2022-07-29T04:54:15;96675.00;;;17.90;100.00
11936;BME280;6027;48.576;9.180;2022-07-29T04:56:40;96684.31;;;18.00;100.00
11936;BME280;6027;48.576;9.180;2022-07-29T04:59:07;96684.91;;;18.02;100.00
11936;BME280;6027;48.576;9.180;2022-07-29T05:01:33;96682.47;;;18.00;100.00
11936;BME280;6027;48.576;9.180;2022-07-29T05:03:58;96691.53;;;17.99;100.00
11936;BME280;6027;48.576;9.180;2022-07-29T05:06:24;96689.22;;;18.03;100.00
11936;BME280;6027;48.576;9.180;2022-07-29T05:08:49;96687.72;;;18.07;100.00
11936;BME280;6027;48.576;9.180;2022-07-29T05:11:15;96688.28;;;18.09;100.00
11936;BME280;6027;48.576;9.180;2022-07-29T05:13:40;96687.81;;;18.00;100.00
11936;BME280;6027;48.576;9.180;2022-07-29T05:16:07;96696.44;;;18.02;100.00
11936;BME280;6027;48.576;9.180;2022-07-29T05:18:33;96691.66;;;18.04;100.00
11936;BME280;6027;48.576;9.180;2022-07-29T05:20:59;96692.94;;;18.13;100.00
11936;BME280;6027;48.576;9.180;2022-07-29T05:23:24;96700.75;;;18.15;100.00
11936;BME280;6027;48.576;9.180;2022-07-29T05:25:50;96699.94;;;18.03;100.00
11936;BME280;6027;48.576;9.180;2022-07-29T05:28:15;96697.50;;;18.01;100.00
11936;BME280;6027;48.576;9.180;2022-07-29T05:30:41;96699.25;;;18.07;100.00
11936;BME280;6027;48.576;9.180;2022-07-29T05:33:07;96701.78;;;18.14;100.00
11936;BME280;6027;48.576;9.180;2022-07-29T05:35:32;96699.00;;;18.20;100.00
11936;BME280;6027;48.576;9.180;2022-07-29T05:38:00;96707.50;;;18.06;100.00
11936;BME280;6027;48.576;9.180;2022-07-29T05:40:25;96699.47;;;18.06;100.00
11936;BME280;6027;48.576;9.180;2022-07-29T05:42:51;96705.16;;;18.09;100.00
11936;BME280;6027;48.576;9.180;2022-07-29T05:45:16;96701.44;;;18.10;100.00
11936;BME280;6027;48.576;9.180;2022-07-29T05:47:42;96693.06;;;18.18;100.00
11936;BME280;6027;48.576;9.180;2022-07-29T05:50:08;96706.44;;;18.18;100.00
11936;BME280;6027;48.576;9.180;2022-07-29T05:52:33;96710.41;;;18.16;100.00
11936;BME280;6027;48.576;9.180;2022-07-29T05:54:59;96713.66;;;18.18;100.00
11936;BME280;6027;48.576;9.180;2022-07-29T05:57:28;96707.25;;;18.19;100.00
11936;BME280;6027;48.576;9.180;2022-07-29T05:59:53;96698.41;;;18.18;100.00
11936;BME280;6027;48.576;9.180;2022-07-29T06:02:19;96722.03;;;18.33;100.00
11936;BME280;6027;48.576;9.180;2022-07-29T06:04:45;96722.16;;;18.38;100.00
11936;BME280;6027;48.576;9.180;2022-07-29T06:07:10;96713.06;;;18.39;100.00
11936;BME280;6027;48.576;9.180;2022-07-29T06:09:36;96720.88;;;18.41;100.00
11936;BME280;6027;48.576;9.180;2022-07-29T06:12:02;96723.09;;;18.44;100.00
11936;BME280;6027;48.576;9.180;2022-07-29T06:14:27;96728.69;;;18.42;100.00
11936;BME280;6027;48.576;9.180;2022-07-29T06:16:54;96725.31;;;18.47;100.00
11936;BME280;6027;48.576;9.180;2022-07-29T06:19:19;96724.72;;;18.45;100.00
11936;BME280;6027;48.576;9.180;2022-07-29T06:21:46;96728.31;;;18.50;100.00
11936;BME280;6027;48.576;9.180;2022-07-29T06:24:12;96727.72;;;18.48;100.00
11936;BME280;6027;48.576;9.180;2022-07-29T06:26:42;96735.53;;;18.50;100.00
11936;BME280;6027;48.576;9.180;2022-07-29T06:29:08;96725.88;;;18.49;100.00
11936;BME280;6027;48.576;9.180;2022-07-29T06:31:36;96723.69;;;18.46;100.00
11936;BME280;6027;48.576;9.180;2022-07-29T06:34:01;96729.75;;;18.41;100.00
11936;BME280;6027;48.576;9.180;2022-07-29T06:36:27;96725.78;;;18.44;100.00
11936;BME280;6027;48.576;9.180;2022-07-29T06:38:52;96723.56;;;18.41;100.00
11936;BME280;6027;48.576;9.180;2022-07-29T06:41:18;96725.97;;;18.54;100.00
11936;BME280;6027;48.576;9.180;2022-07-29T06:43:44;96734.38;;;18.57;100.00
11936;BME280;6027;48.576;9.180;2022-07-29T06:46:13;96730.41;;;18.72;100.00
11936;BME280;6027;48.576;9.180;2022-07-29T06:48:40;96727.84;;;18.77;100.00
11936;BME280;6027;48.576;9.180;2022-07-29T06:51:07;96732.72;;;18.80;100.00
11936;BME280;6027;48.576;9.180;2022-07-29T06:53:34;96731.22;;;18.84;100.00
11936;BME280;6027;48.576;9.180;2022-07-29T06:56:00;96730.22;;;18.90;100.00
11936;BME280;6027;48.576;9.180;2022-07-29T06:58:27;96727.22;;;18.86;100.00
11936;BME280;6027;48.576;9.180;2022-07-29T07:00:53;96739.22;;;18.95;100.00
11936;BME280;6027;48.576;9.180;2022-07-29T07:03:18;96737.34;;;18.96;100.00
11936;BME280;6027;48.576;9.180;2022-07-29T07:05:46;96738.03;;;19.03;100.00
11936;BME280;6027;48.576;9.180;2022-07-29T07:08:12;96736.16;;;19.04;100.00
11936;BME280;6027;48.576;9.180;2022-07-29T07:10:39;96741.94;;;19.12;100.00
11936;BME280;6027;48.576;9.180;2022-07-29T07:13:05;96744.75;;;19.17;100.00
11936;BME280;6027;48.576;9.180;2022-07-29T07:15:31;96740.53;;;19.21;100.00
11936;BME280;6027;48.576;9.180;2022-07-29T07:17:56;96747.13;;;19.30;100.00
11936;BME280;6027;48.576;9.180;2022-07-29T07:20:23;96756.22;;;19.29;100.00
11936;BME280;6027;48.576;9.180;2022-07-29T07:22:49;96753.06;;;19.32;100.00
11936;BME280;6027;48.576;9.180;2022-07-29T07:25:14;96747.94;;;19.31;100.00
11936;BME280;6027;48.576;9.180;2022-07-29T07:27:39;96748.00;;;19.19;100.00
11936;BME280;6027;48.576;9.180;2022-07-29T07:30:06;96752.16;;;19.27;100.00
11936;BME280;6027;48.576;9.180;2022-07-29T07:32:35;96756.47;;;19.28;100.00
11936;BME280;6027;48.576;9.180;2022-07-29T07:35:01;96751.53;;;19.37;100.00
11936;BME280;6027;48.576;9.180;2022-07-29T07:37:26;96756.00;;;19.31;100.00
11936;BME280;6027;48.576;9.180;2022-07-29T07:39:52;96752.34;;;19.37;100.00
11936;BME280;6027;48.576;9.180;2022-07-29T07:42:19;96738.72;;;19.27;100.00
11936;BME280;6027;48.576;9.180;2022-07-29T07:44:44;96758.63;;;19.43;100.00
11936;BME280;6027;48.576;9.180;2022-07-29T07:47:11;96760.00;;;19.45;100.00
11936;BME280;6027;48.576;9.180;2022-07-29T07:49:37;96761.28;;;19.54;100.00
11936;BME280;6027;48.576;9.180;2022-07-29T07:52:03;96753.94;;;19.50;100.00
11936;BME280;6027;48.576;9.180;2022-07-29T07:54:29;96753.47;;;19.53;100.00
11936;BME280;6027;48.576;9.180;2022-07-29T07:56:55;96752.50;;;19.59;100.00
11936;BME280;6027;48.576;9.180;2022-07-29T07:59:20;96756.75;;;19.72;100.00
11936;BME280;6027;48.576;9.180;2022-07-29T08:01:46;96753.50;;;19.70;100.00
11936;BME280;6027;48.576;9.180;2022-07-29T08:04:11;96756.66;;;19.66;100.00
11936;BME280;6027;48.576;9.180;2022-07-29T08:06:36;96752.28;;;19.77;100.00
11936;BME280;6027;48.576;9.180;2022-07-29T08:09:03;96764.19;;;19.98;100.00
11936;BME280;6027;48.576;9.180;2022-07-29T08:11:30;96758.63;;;20.05;100.00
11936;BME280;6027;48.576;9.180;2022-07-29T08:13:55;96753.34;;;20.10;100.00
11936;BME280;6027;48.576;9.180;2022-07-29T08:16:21;96759.53;;;20.10;100.00
11936;BME280;6027;48.576;9.180;2022-07-29T08:18:47;96758.06;;;20.19;100.00
11936;BME280;6027;48.576;9.180;2022-07-29T08:21:14;96768.16;;;20.29;100.00
11936;BME280;6027;48.576;9.180;2022-07-29T08:23:40;96759.19;;;20.40;100.00
11936;BME280;6027;48.576;9.180;2022-07-29T08:26:12;96754.94;;;20.44;100.00
11936;BME280;6027;48.576;9.180;2022-07-29T08:28:39;96763.34;;;20.48;100.00
11936;BME280;6027;48.576;9.180;2022-07-29T08:31:04;96766.34;;;20.51;100.00
11936;BME280;6027;48.576;9.180;2022-07-29T08:33:30;96759.44;;;20.55;100.00
11936;BME280;6027;48.576;9.180;2022-07-29T08:35:56;96765.91;;;20.59;100.00
11936;BME280;6027;48.576;9.180;2022-07-29T08:38:21;96760.13;;;20.67;100.00
11936;BME280;6027;48.576;9.180;2022-07-29T08:40:47;96758.81;;;20.70;100.00
11936;BME280;6027;48.576;9.180;2022-07-29T08:43:13;96757.00;;;20.76;100.00
11936;BME280;6027;48.576;9.180;2022-07-29T08:45:43;96753.38;;;20.87;100.00
11936;BME280;6027;48.576;9.180;2022-07-29T08:48:11;96760.22;;;20.94;100.00
11936;BME280;6027;48.576;9.180;2022-07-29T08:50:37;96765.84;;;20.93;100.00
11936;BME280;6027;48.576;9.180;2022-07-29T08:53:03;96775.66;;;21.04;100.00
11936;BME280;6027;48.576;9.180;2022-07-29T08:55:30;96770.69;;;21.18;100.00
11936;BME280;6027;48.576;9.180;2022-07-29T08:57:56;96772.97;;;21.26;100.00
11936;BME280;6027;48.576;9.180;2022-07-29T09:00:23;96769.53;;;21.30;100.00
11936;BME280;6027;48.576;9.180;2022-07-29T09:02:54;96776.41;;;21.43;100.00
11936;BME280;6027;48.576;9.180;2022-07-29T09:05:23;96783.16;;;21.46;100.00
11936;BME280;6027;48.576;9.180;2022-07-29T09:07:49;96779.00;;;21.60;100.00
11936;BME280;6027;48.576;9.180;2022-07-29T09:10:15;96789.28;;;21.63;100.00
11936;BME280;6027;48.576;9.180;2022-07-29T09:12:41;96780.69;;;21.66;100.00
11936;BME280;6027;48.576;9.180;2022-07-29T09:15:07;96772.28;;;21.62;100.00
11936;BME280;6027;48.576;9.180;2022-07-29T09:17:43;96773.72;;;21.70;100.00
11936;BME280;6027;48.576;9.180;2022-07-29T09:20:11;96782.25;;;21.89;100.00
11936;BME280;6027;48.576;9.180;2022-07-29T09:22:37;96766.47;;;22.02;100.00
11936;BME280;6027;48.576;9.180;2022-07-29T09:25:03;96763.28;;;22.05;100.00
11936;BME280;6027;48.576;9.180;2022-07-29T09:27:28;96765.47;;;22.14;100.00
11936;BME280;6027;48.576;9.180;2022-07-29T09:30:07;96764.25;;;22.26;100.00
11936;BME280;6027;48.576;9.180;2022-07-29T09:32:55;96765.63;;;22.34;100.00
11936;BME280;6027;48.576;9.180;2022-07-29T09:35:23;96765.13;;;22.37;100.00
11936;BME280;6027;48.576;9.180;2022-07-29T09:37:49;96766.56;;;22.50;100.00
11936;BME280;6027;48.576;9.180;2022-07-29T09:40:24;96770.59;;;22.52;100.00
11936;BME280;6027;48.576;9.180;2022-07-29T09:42:51;96762.00;;;22.55;100.00
11936;BME280;6027;48.576;9.180;2022-07-29T09:45:30;96759.06;;;22.62;100.00
11936;BME280;6027;48.576;9.180;2022-07-29T09:47:57;96771.75;;;22.61;100.00
11936;BME280;6027;48.576;9.180;2022-07-29T09:50:45;96773.94;;;22.64;100.00
11936;BME280;6027;48.576;9.180;2022-07-29T09:53:29;96764.50;;;22.67;100.00
11936;BME280;6027;48.576;9.180;2022-07-29T09:55:55;96752.38;;;22.69;100.00
11936;BME280;6027;48.576;9.180;2022-07-29T09:58:21;96754.53;;;22.67;100.00
11936;BME280;6027;48.576;9.180;2022-07-29T10:00:49;96756.66;;;22.65;100.00
11936;BME280;6027;48.576;9.180;2022-07-29T10:03:15;96753.19;;;22.75;100.00
11936;BME280;6027;48.576;9.180;2022-07-29T10:05:41;96745.34;;;22.73;100.00
11936;BME280;6027;48.576;9.180;2022-07-29T10:08:09;96751.38;;;22.81;100.00
11936;BME280;6027;48.576;9.180;2022-07-29T10:10:38;96729.72;;;22.70;100.00
11936;BME280;6027;48.576;9.180;2022-07-29T10:13:09;96759.47;;;22.81;100.00
11936;BME280;6027;48.576;9.180;2022-07-29T10:15:37;96753.59;;;22.89;100.00
11936;BME280;6027;48.576;9.180;2022-07-29T10:18:10;96750.91;;;22.99;100.00
11936;BME280;6027;48.576;9.180;2022-07-29T10:20:37;96747.16;;;23.05;100.00
11936;BME280;6027;48.576;9.180;2022-07-29T10:23:09;96739.88;;;23.05;100.00
11936;BME280;6027;48.576;9.180;2022-07-29T10:25:35;96738.53;;;23.13;100.00
11936;BME280;6027;48.576;9.180;2022-07-29T10:28:00;96737.47;;;23.19;100.00
11936;BME280;6027;48.576;9.180;2022-07-29T10:30:26;96735.34;;;23.26;100.00
11936;BME280;6027;48.576;9.180;2022-07-29T10:44:16;96725.97;;;23.54;100.00
11936;BME280;6027;48.576;9.180;2022-07-29T10:46:42;96730.31;;;23.60;100.00
11936;BME280;6027;48.576;9.180;2022-07-29T10:49:22;96723.00;;;23.56;100.00
11936;BME280;6027;48.576;9.180;2022-07-29T10:52:17;96725.16;;;23.59;100.00
11936;BME280;6027;48.576;9.180;2022-07-29T10:54:48;96716.50;;;23.67;100.00
11936;BME280;6027;48.576;9.180;2022-07-29T10:57:22;96710.59;;;23.75;100.00
11936;BME280;6027;48.576;9.180;2022-07-29T11:05:08;96727.88;;;23.89;100.00
11936;BME280;6027;48.576;9.180;2022-07-29T11:07:35;96732.22;;;23.95;100.00
11936;BME280;6027;48.576;9.180;2022-07-29T11:22:55;96709.50;;;23.91;100.00
11936;BME280;6027;48.576;9.180;2022-07-29T11:25:21;96726.81;;;24.00;100.00
11936;BME280;6027;48.576;9.180;2022-07-29T11:27:47;96737.09;;;23.93;100.00
11936;BME280;6027;48.576;9.180;2022-07-29T11:30:12;96764.88;;;23.53;100.00
11936;BME280;6027;48.576;9.180;2022-07-29T11:32:41;96760.41;;;23.06;100.00
11936;BME280;6027;48.576;9.180;2022-07-29T11:35:21;96759.63;;;22.64;100.00
11936;BME280;6027;48.576;9.180;2022-07-29T11:38:26;96743.44;;;22.64;100.00
11936;BME280;6027;48.576;9.180;2022-07-29T11:43:56;96749.09;;;22.62;100.00
11936;BME280;6027;48.576;9.180;2022-07-29T11:46:48;96744.78;;;22.66;100.00
11936;BME280;6027;48.576;9.180;2022-07-29T11:49:24;96745.63;;;22.72;100.00
11936;BME280;6027;48.576;9.180;2022-07-29T11:51:54;96762.09;;;22.70;100.00
11936;BME280;6027;48.576;9.180;2022-07-29T11:54:26;96754.25;;;22.69;100.00
11936;BME280;6027;48.576;9.180;2022-07-29T11:56:52;96758.03;;;22.73;100.00
11936;BME280;6027;48.576;9.180;2022-07-29T11:59:19;96748.13;;;22.79;100.00
11936;BME280;6027;48.576;9.180;2022-07-29T12:01:55;96754.53;;;22.72;100.00
11936;BME280;6027;48.576;9.180;2022-07-29T12:04:20;96767.28;;;22.77;100.00
11936;BME280;6027;48.576;9.180;2022-07-29T12:06:55;96756.78;;;22.81;100.00
11936;BME280;6027;48.576;9.180;2022-07-29T12:09:22;96761.38;;;22.90;100.00
11936;BME280;6027;48.576;9.180;2022-07-29T12:11:56;96761.97;;;22.97;100.00
11936;BME280;6027;48.576;9.180;2022-07-29T12:14:26;96760.66;;;23.05;100.00
11936;BME280;6027;48.576;9.180;2022-07-29T12:16:52;96753.94;;;23.07;100.00
11936;BME280;6027;48.576;9.180;2022-07-29T12:19:18;96750.97;;;23.09;100.00
11936;BME280;6027;48.576;9.180;2022-07-29T12:21:44;96757.38;;;22.98;100.00
11936;BME280;6027;48.576;9.180;2022-07-29T12:24:10;96745.22;;;22.95;100.00
11936;BME280;6027;48.576;9.180;2022-07-29T12:26:36;96744.16;;;22.96;100.00
11936;BME280;6027;48.576;9.180;2022-07-29T12:29:02;96748.69;;;22.91;100.00
11936;BME280;6027;48.576;9.180;2022-07-29T12:31:28;96748.41;;;22.82;100.00
11936;BME280;6027;48.576;9.180;2022-07-29T12:33:53;96750.50;;;22.70;100.00
11936;BME280;6027;48.576;9.180;2022-07-29T12:36:19;96759.72;;;22.32;100.00
11936;BME280;6027;48.576;9.180;2022-07-29T12:38:45;96756.81;;;22.07;100.00
11936;BME280;6027;48.576;9.180;2022-07-29T12:41:11;96759.13;;;21.98;100.00
11936;BME280;6027;48.576;9.180;2022-07-29T12:43:37;96763.63;;;21.87;100.00
11936;BME280;6027;48.576;9.180;2022-07-29T12:46:14;96749.41;;;21.92;100.00
11936;BME280;6027;48.576;9.180;2022-07-29T12:48:41;96748.94;;;22.00;100.00
11936;BME280;6027;48.576;9.180;2022-07-29T12:51:07;96753.84;;;22.08;100.00
11936;BME280;6027;48.576;9.180;2022-07-29T12:53:34;96751.78;;;22.20;100.00
11936;BME280;6027;48.576;9.180;2022-07-29T12:56:01;96758.09;;;22.36;100.00
11936;BME280;6027;48.576;9.180;2022-07-29T12:58:41;96763.88;;;22.50;100.00
11936;BME280;6027;48.576;9.180;2022-07-29T13:01:17;96753.59;;;22.52;100.00
11936;BME280;6027;48.576;9.180;2022-07-29T13:03:56;96755.31;;;22.63;100.00
11936;BME280;6027;48.576;9.180;2022-07-29T13:06:28;96762.63;;;22.67;100.00
11936;BME280;6027;48.576;9.180;2022-07-29T13:09:19;96772.03;;;22.65;100.00
11936;BME280;6027;48.576;9.180;2022-07-29T13:11:47;96768.56;;;22.74;100.00
11936;BME280;6027;48.576;9.180;2022-07-29T13:14:30;96768.13;;;22.83;100.00
11936;BME280;6027;48.576;9.180;2022-07-29T13:19:48;96788.44;;;23.00;100.00
11936;BME280;6027;48.576;9.180;2022-07-29T13:22:20;96798.41;;;22.90;100.00
11936;BME280;6027;48.576;9.180;2022-07-29T13:25:00;96804.06;;;22.93;100.00
11936;BME280;6027;48.576;9.180;2022-07-29T13:27:30;96812.97;;;22.89;100.00
11936;BME280;6027;48.576;9.180;2022-07-29T13:29:58;96808.50;;;22.72;100.00
11936;BME280;6027;48.576;9.180;2022-07-29T13:32:25;96830.78;;;22.53;100.00
11936;BME280;6027;48.576;9.180;2022-07-29T13:34:52;96818.41;;;21.93;100.00
11936;BME280;6027;48.576;9.180;2022-07-29T13:37:18;96815.81;;;22.03;100.00
11936;BME280;6027;48.576;9.180;2022-07-29T13:39:44;96806.66;;;21.77;100.00
11936;BME280;6027;48.576;9.180;2022-07-29T13:42:10;96808.69;;;21.65;100.00
11936;BME280;6027;48.576;9.180;2022-07-29T13:44:38;96797.81;;;21.55;100.00